Hillsboro, New Hampshire
Current Conditions -  °F | °C
As of 1:51 AM on Thursday 23 Oct 2014 (Local Time) from KCON Reporting Station
Light Rain Light Rain  
Wind Chill:   Ceiling: 1800
Heat Index:   Visibility: 10mi
Dew Point:   Wind: 9mph
Humidity: 97%   Direction: 10°N
Pressure: 29.87"   Gusts: 18mph
Location:  43.12°N, 71.9°W
Report Text: KCON 230551Z AUTO 01008G16KT 10SM -RA OVC018 08/08 A2987 RMK AO2 SLP116 P0002 60013 T00830078 10089 20078 58021
Loading
Personal Weather Stations






























Interactive Weather Map
Tropical Storm Tracking
New forecast layout! Learn more

10-Day Weather Forecast

Advertisements
Track Severe Weather on mobile